sensor_id;sensor_type;location;lat;lon;timestamp;pressure;altitude;pressure_sealevel;temperature;humidity
63395;BME280;49531;-34.520;150.798;2023-05-12T00:00:12;101982.78;;;20.85;53.30
63395;BME280;49531;-34.520;150.798;2023-05-12T00:02:40;101978.69;;;20.94;53.11
63395;BME280;49531;-34.520;150.798;2023-05-12T00:05:07;101979.88;;;20.98;53.07
63395;BME280;49531;-34.520;150.798;2023-05-12T00:07:35;101970.91;;;20.98;52.92
63395;BME280;49531;-34.520;150.798;2023-05-12T00:10:02;101977.44;;;21.09;52.94
63395;BME280;49531;-34.520;150.798;2023-05-12T00:12:30;101979.44;;;21.13;52.71
63395;BME280;49531;-34.520;150.798;2023-05-12T00:14:57;101971.28;;;21.13;52.43
63395;BME280;49531;-34.520;150.798;2023-05-12T00:17:24;101960.75;;;21.05;52.48
63395;BME280;49531;-34.520;150.798;2023-05-12T00:19:53;101979.09;;;21.21;52.58
63395;BME280;49531;-34.520;150.798;2023-05-12T00:22:20;101981.50;;;21.29;52.42
63395;BME280;49531;-34.520;150.798;2023-05-12T00:24:47;101983.28;;;21.36;51.97
63395;BME280;49531;-34.520;150.798;2023-05-12T00:27:14;101981.88;;;21.45;52.10
63395;BME280;49531;-34.520;150.798;2023-05-12T00:29:41;101970.41;;;21.43;51.83
63395;BME280;49531;-34.520;150.798;2023-05-12T00:32:08;101981.03;;;21.56;51.43
63395;BME280;49531;-34.520;150.798;2023-05-12T00:34:36;101972.28;;;21.54;51.46
63395;BME280;49531;-34.520;150.798;2023-05-12T00:37:03;101975.13;;;21.59;51.50
63395;BME280;49531;-34.520;150.798;2023-05-12T00:39:31;101959.28;;;21.56;51.37
63395;BME280;49531;-34.520;150.798;2023-05-12T00:41:58;101962.09;;;21.61;51.27
63395;BME280;49531;-34.520;150.798;2023-05-12T00:44:26;101957.38;;;21.68;51.02
63395;BME280;49531;-34.520;150.798;2023-05-12T00:46:53;101942.00;;;21.62;50.85
63395;BME280;49531;-34.520;150.798;2023-05-12T00:49:20;101960.91;;;21.80;50.78
63395;BME280;49531;-34.520;150.798;2023-05-12T00:51:48;101957.72;;;21.83;50.50
63395;BME280;49531;-34.520;150.798;2023-05-12T00:54:16;101953.69;;;21.86;50.11
63395;BME280;49531;-34.520;150.798;2023-05-12T00:56:43;101925.19;;;21.77;50.26
63395;BME280;49531;-34.520;150.798;2023-05-12T00:59:10;101948.13;;;21.92;49.95
63395;BME280;49531;-34.520;150.798;2023-05-12T01:01:37;101946.34;;;21.98;49.82
63395;BME280;49531;-34.520;150.798;2023-05-12T01:04:05;101939.56;;;22.01;49.82
63395;BME280;49531;-34.520;150.798;2023-05-12T01:06:40;101939.13;;;22.04;49.64
63395;BME280;49531;-34.520;150.798;2023-05-12T01:09:09;101936.38;;;22.04;49.39
63395;BME280;49531;-34.520;150.798;2023-05-12T01:11:37;101925.84;;;22.07;49.13
63395;BME280;49531;-34.520;150.798;2023-05-12T01:14:04;101935.19;;;22.11;49.21
63395;BME280;49531;-34.520;150.798;2023-05-12T01:16:38;101913.41;;;22.11;49.21
63395;BME280;49531;-34.520;150.798;2023-05-12T01:19:08;101916.97;;;22.12;49.33
63395;BME280;49531;-34.520;150.798;2023-05-12T01:21:40;101906.91;;;22.12;49.03
63395;BME280;49531;-34.520;150.798;2023-05-12T01:24:08;101917.41;;;22.20;48.45
63395;BME280;49531;-34.520;150.798;2023-05-12T01:26:37;101913.72;;;22.26;48.43
63395;BME280;49531;-34.520;150.798;2023-05-12T01:29:05;101903.66;;;22.27;47.63
63395;BME280;49531;-34.520;150.798;2023-05-12T01:31:33;101890.31;;;22.25;47.56
63395;BME280;49531;-34.520;150.798;2023-05-12T01:34:00;101886.25;;;22.28;48.13
63395;BME280;49531;-34.520;150.798;2023-05-12T01:36:27;101886.59;;;22.32;48.16
63395;BME280;49531;-34.520;150.798;2023-05-12T01:38:54;101888.00;;;22.34;48.29
63395;BME280;49531;-34.520;150.798;2023-05-12T01:41:25;101879.38;;;22.37;47.81
63395;BME280;49531;-34.520;150.798;2023-05-12T01:43:52;101865.75;;;22.37;47.74
63395;BME280;49531;-34.520;150.798;2023-05-12T01:46:19;101862.34;;;22.47;47.29
63395;BME280;49531;-34.520;150.798;2023-05-12T01:48:46;101869.69;;;22.46;47.90
63395;BME280;49531;-34.520;150.798;2023-05-12T01:51:14;101864.00;;;22.48;48.19
63395;BME280;49531;-34.520;150.798;2023-05-12T01:53:42;101855.00;;;22.47;48.37
63395;BME280;49531;-34.520;150.798;2023-05-12T01:56:09;101848.75;;;22.47;48.56
63395;BME280;49531;-34.520;150.798;2023-05-12T01:58:36;101842.47;;;22.46;48.67
63395;BME280;49531;-34.520;150.798;2023-05-12T02:01:03;101835.97;;;22.47;48.78
63395;BME280;49531;-34.520;150.798;2023-05-12T02:03:30;101831.91;;;22.50;48.92
63395;BME280;49531;-34.520;150.798;2023-05-12T02:05:57;101828.03;;;22.46;49.00
63395;BME280;49531;-34.520;150.798;2023-05-12T02:08:24;101843.72;;;22.55;49.01
63395;BME280;49531;-34.520;150.798;2023-05-12T02:11:04;101828.47;;;22.54;49.04
63395;BME280;49531;-34.520;150.798;2023-05-12T02:13:35;101829.03;;;22.56;49.06
63395;BME280;49531;-34.520;150.798;2023-05-12T02:16:02;101820.38;;;22.59;49.05
63395;BME280;49531;-34.520;150.798;2023-05-12T02:18:29;101808.56;;;22.54;49.06
63395;BME280;49531;-34.520;150.798;2023-05-12T02:20:57;101807.00;;;22.58;48.92
63395;BME280;49531;-34.520;150.798;2023-05-12T02:23:24;101816.41;;;22.67;48.85
63395;BME280;49531;-34.520;150.798;2023-05-12T02:25:51;101803.53;;;22.62;49.13
63395;BME280;49531;-34.520;150.798;2023-05-12T02:28:18;101810.88;;;22.62;49.01
63395;BME280;49531;-34.520;150.798;2023-05-12T02:30:46;101800.25;;;22.60;49.08
63395;BME280;49531;-34.520;150.798;2023-05-12T02:33:15;101799.25;;;22.67;49.05
63395;BME280;49531;-34.520;150.798;2023-05-12T02:35:43;101791.66;;;22.69;49.21
63395;BME280;49531;-34.520;150.798;2023-05-12T02:38:11;101792.22;;;22.71;48.66
63395;BME280;49531;-34.520;150.798;2023-05-12T02:40:38;101784.88;;;22.71;49.00
63395;BME280;49531;-34.520;150.798;2023-05-12T02:43:06;101790.34;;;22.71;48.91
63395;BME280;49531;-34.520;150.798;2023-05-12T02:45:33;101789.00;;;22.74;49.17
63395;BME280;49531;-34.520;150.798;2023-05-12T02:48:00;101780.50;;;22.70;49.28
63395;BME280;49531;-34.520;150.798;2023-05-12T02:50:27;101784.97;;;22.76;49.16
63395;BME280;49531;-34.520;150.798;2023-05-12T02:52:54;101781.66;;;22.74;49.55
63395;BME280;49531;-34.520;150.798;2023-05-12T02:55:22;101775.66;;;22.72;49.82
63395;BME280;49531;-34.520;150.798;2023-05-12T02:57:49;101775.56;;;22.67;49.94
63395;BME280;49531;-34.520;150.798;2023-05-12T03:00:16;101767.81;;;22.76;49.98
63395;BME280;49531;-34.520;150.798;2023-05-12T03:02:43;101771.59;;;22.75;49.94
63395;BME280;49531;-34.520;150.798;2023-05-12T03:05:10;101768.38;;;22.78;50.01
63395;BME280;49531;-34.520;150.798;2023-05-12T03:07:37;101765.06;;;22.76;50.24
63395;BME280;49531;-34.520;150.798;2023-05-12T03:10:05;101764.50;;;22.74;50.28
63395;BME280;49531;-34.520;150.798;2023-05-12T03:12:33;101760.69;;;22.75;50.28
63395;BME280;49531;-34.520;150.798;2023-05-12T03:15:00;101761.06;;;22.78;50.16
63395;BME280;49531;-34.520;150.798;2023-05-12T03:17:27;101770.06;;;22.79;50.64
63395;BME280;49531;-34.520;150.798;2023-05-12T03:19:54;101764.31;;;22.80;50.56
63395;BME280;49531;-34.520;150.798;2023-05-12T03:22:21;101768.94;;;22.80;50.59
63395;BME280;49531;-34.520;150.798;2023-05-12T03:24:48;101759.94;;;22.79;50.55
63395;BME280;49531;-34.520;150.798;2023-05-12T03:27:15;101756.31;;;22.74;50.66
63395;BME280;49531;-34.520;150.798;2023-05-12T03:29:42;101753.59;;;22.74;51.03
63395;BME280;49531;-34.520;150.798;2023-05-12T03:32:09;101756.66;;;22.77;50.83
63395;BME280;49531;-34.520;150.798;2023-05-12T03:34:37;101750.63;;;22.75;50.80
63395;BME280;49531;-34.520;150.798;2023-05-12T03:37:04;101759.94;;;22.79;51.11
63395;BME280;49531;-34.520;150.798;2023-05-12T03:39:31;101751.47;;;22.76;50.91
63395;BME280;49531;-34.520;150.798;2023-05-12T03:41:58;101745.69;;;22.72;50.77
63395;BME280;49531;-34.520;150.798;2023-05-12T03:44:26;101746.34;;;22.79;50.86
63395;BME280;49531;-34.520;150.798;2023-05-12T03:46:53;101738.09;;;22.74;50.98
63395;BME280;49531;-34.520;150.798;2023-05-12T03:49:20;101735.88;;;22.71;50.83
63395;BME280;49531;-34.520;150.798;2023-05-12T03:51:47;101748.72;;;22.76;50.97
63395;BME280;49531;-34.520;150.798;2023-05-12T03:54:14;101753.09;;;22.77;50.84
63395;BME280;49531;-34.520;150.798;2023-05-12T03:56:41;101747.34;;;22.73;50.75
63395;BME280;49531;-34.520;150.798;2023-05-12T03:59:08;101747.66;;;22.77;50.50
63395;BME280;49531;-34.520;150.798;2023-05-12T04:01:37;101741.88;;;22.73;50.51
63395;BME280;49531;-34.520;150.798;2023-05-12T04:04:04;101743.84;;;22.78;49.98
63395;BME280;49531;-34.520;150.798;2023-05-12T04:06:31;101738.66;;;22.76;50.11
63395;BME280;49531;-34.520;150.798;2023-05-12T04:08:58;101739.41;;;22.72;50.21
63395;BME280;49531;-34.520;150.798;2023-05-12T04:11:26;101736.13;;;22.70;50.07
63395;BME280;49531;-34.520;150.798;2023-05-12T04:13:53;101730.41;;;22.71;50.15
63395;BME280;49531;-34.520;150.798;2023-05-12T04:16:20;101741.13;;;22.78;49.55
63395;BME280;49531;-34.520;150.798;2023-05-12T04:18:47;101733.72;;;22.73;49.82
63395;BME280;49531;-34.520;150.798;2023-05-12T04:21:15;101736.69;;;22.72;49.77
63395;BME280;49531;-34.520;150.798;2023-05-12T04:23:42;101738.41;;;22.78;49.54
63395;BME280;49531;-34.520;150.798;2023-05-12T04:26:09;101742.22;;;22.77;49.75
63395;BME280;49531;-34.520;150.798;2023-05-12T04:28:36;101744.94;;;22.77;49.64
63395;BME280;49531;-34.520;150.798;2023-05-12T04:31:03;101733.97;;;22.72;49.46
63395;BME280;49531;-34.520;150.798;2023-05-12T04:33:30;101738.41;;;22.78;49.23
63395;BME280;49531;-34.520;150.798;2023-05-12T04:35:58;101742.47;;;22.75;49.21
63395;BME280;49531;-34.520;150.798;2023-05-12T04:38:25;101747.97;;;22.80;49.23
63395;BME280;49531;-34.520;150.798;2023-05-12T04:40:57;101749.63;;;22.81;49.27
63395;BME280;49531;-34.520;150.798;2023-05-12T04:43:25;101741.63;;;22.75;49.17
63395;BME280;49531;-34.520;150.798;2023-05-12T04:45:53;101736.44;;;22.73;49.04
63395;BME280;49531;-34.520;150.798;2023-05-12T04:48:20;101743.53;;;22.74;49.07
63395;BME280;49531;-34.520;150.798;2023-05-12T04:50:49;101749.81;;;22.75;49.15
63395;BME280;49531;-34.520;150.798;2023-05-12T04:53:16;101766.50;;;22.78;49.35
63395;BME280;49531;-34.520;150.798;2023-05-12T04:55:43;101755.66;;;22.83;49.05
63395;BME280;49531;-34.520;150.798;2023-05-12T04:58:12;101752.88;;;22.78;49.03
63395;BME280;49531;-34.520;150.798;2023-05-12T05:00:39;101761.34;;;22.82;48.89
63395;BME280;49531;-34.520;150.798;2023-05-12T05:03:06;101762.09;;;22.77;49.04
63395;BME280;49531;-34.520;150.798;2023-05-12T05:05:33;101764.31;;;22.80;49.09
63395;BME280;49531;-34.520;150.798;2023-05-12T05:08:00;101750.63;;;22.75;49.03
63395;BME280;49531;-34.520;150.798;2023-05-12T05:10:27;101767.13;;;22.85;49.14
63395;BME280;49531;-34.520;150.798;2023-05-12T05:12:55;101759.69;;;22.81;49.31
63395;BME280;49531;-34.520;150.798;2023-05-12T05:15:22;101766.56;;;22.83;49.46
63395;BME280;49531;-34.520;150.798;2023-05-12T05:17:49;101765.72;;;22.83;49.41
63395;BME280;49531;-34.520;150.798;2023-05-12T05:20:16;101763.81;;;22.83;49.70
63395;BME280;49531;-34.520;150.798;2023-05-12T05:22:43;101772.56;;;22.85;49.64
63395;BME280;49531;-34.520;150.798;2023-05-12T05:25:11;101777.28;;;22.90;49.64
63395;BME280;49531;-34.520;150.798;2023-05-12T05:27:38;101783.31;;;22.92;49.62
63395;BME280;49531;-34.520;150.798;2023-05-12T05:30:07;101777.28;;;22.90;49.92
63395;BME280;49531;-34.520;150.798;2023-05-12T05:32:35;101785.44;;;22.90;49.80
63395;BME280;49531;-34.520;150.798;2023-05-12T05:35:02;101792.31;;;22.92;50.11
63395;BME280;49531;-34.520;150.798;2023-05-12T05:37:30;101785.38;;;22.85;50.30
63395;BME280;49531;-34.520;150.798;2023-05-12T05:39:57;101794.69;;;22.89;50.61
63395;BME280;49531;-34.520;150.798;2023-05-12T05:42:24;101798.00;;;22.91;50.65
63395;BME280;49531;-34.520;150.798;2023-05-12T05:44:51;101785.38;;;22.85;50.83
63395;BME280;49531;-34.520;150.798;2023-05-12T05:47:19;101799.56;;;22.87;50.91
63395;BME280;49531;-34.520;150.798;2023-05-12T05:49:46;101813.03;;;22.93;51.15
63395;BME280;49531;-34.520;150.798;2023-05-12T05:52:13;101814.69;;;22.94;51.03
63395;BME280;49531;-34.520;150.798;2023-05-12T05:54:40;101799.00;;;22.85;51.24
63395;BME280;49531;-34.520;150.798;2023-05-12T05:57:07;101806.75;;;22.93;51.42
63395;BME280;49531;-34.520;150.798;2023-05-12T05:59:35;101807.25;;;22.90;51.44
63395;BME280;49531;-34.520;150.798;2023-05-12T06:02:02;101817.16;;;22.96;51.48
63395;BME280;49531;-34.520;150.798;2023-05-12T06:04:29;101816.81;;;22.92;51.48
63395;BME280;49531;-34.520;150.798;2023-05-12T06:06:56;101822.59;;;22.96;51.59
63395;BME280;49531;-34.520;150.798;2023-05-12T06:09:23;101817.06;;;22.91;51.48
63395;BME280;49531;-34.520;150.798;2023-05-12T06:11:50;101818.72;;;22.92;51.73
63395;BME280;49531;-34.520;150.798;2023-05-12T06:14:17;101820.38;;;22.93;51.37
63395;BME280;49531;-34.520;150.798;2023-05-12T06:16:44;101831.84;;;22.95;51.29
63395;BME280;49531;-34.520;150.798;2023-05-12T06:19:11;101839.78;;;22.97;51.47
63395;BME280;49531;-34.520;150.798;2023-05-12T06:21:38;101838.94;;;22.96;51.44
63395;BME280;49531;-34.520;150.798;2023-05-12T06:24:06;101844.41;;;22.96;51.28
63395;BME280;49531;-34.520;150.798;2023-05-12T06:26:33;101843.81;;;22.94;50.73
63395;BME280;49531;-34.520;150.798;2023-05-12T06:29:00;101835.25;;;22.85;50.91
63395;BME280;49531;-34.520;150.798;2023-05-12T06:31:27;101845.47;;;22.95;51.00
63395;BME280;49531;-34.520;150.798;2023-05-12T06:33:54;101851.41;;;22.92;50.72
63395;BME280;49531;-34.520;150.798;2023-05-12T06:36:21;101843.16;;;22.87;50.72
63395;BME280;49531;-34.520;150.798;2023-05-12T06:38:49;101859.09;;;22.95;50.44
63395;BME280;49531;-34.520;150.798;2023-05-12T06:41:16;101852.50;;;22.91;50.63
63395;BME280;49531;-34.520;150.798;2023-05-12T06:43:43;101851.84;;;22.84;50.47
63395;BME280;49531;-34.520;150.798;2023-05-12T06:46:11;101856.78;;;22.87;50.33
63395;BME280;49531;-34.520;150.798;2023-05-12T06:48:39;101865.22;;;22.85;50.51
63395;BME280;49531;-34.520;150.798;2023-05-12T06:51:06;101867.34;;;22.83;50.84
63395;BME280;49531;-34.520;150.798;2023-05-12T06:53:33;101882.13;;;22.87;50.69
63395;BME280;49531;-34.520;150.798;2023-05-12T06:56:04;101872.97;;;22.77;50.68
63395;BME280;49531;-34.520;150.798;2023-05-12T06:58:31;101882.88;;;22.83;50.91
63395;BME280;49531;-34.520;150.798;2023-05-12T07:00:58;101900.28;;;22.82;50.63
63395;BME280;49531;-34.520;150.798;2023-05-12T07:03:25;101898.09;;;22.79;50.86
63395;BME280;49531;-34.520;150.798;2023-05-12T07:05:52;101901.28;;;22.76;51.00
63395;BME280;49531;-34.520;150.798;2023-05-12T07:08:19;101898.47;;;22.71;50.75
63395;BME280;49531;-34.520;150.798;2023-05-12T07:10:46;101895.66;;;22.66;50.89
63395;BME280;49531;-34.520;150.798;2023-05-12T07:13:14;101900.03;;;22.67;51.07
63395;BME280;49531;-34.520;150.798;2023-05-12T07:15:41;101912.56;;;22.68;50.98
63395;BME280;49531;-34.520;150.798;2023-05-12T07:18:08;101910.47;;;22.58;51.09
63395;BME280;49531;-34.520;150.798;2023-05-12T07:20:35;101917.00;;;22.57;51.04
63395;BME280;49531;-34.520;150.798;2023-05-12T07:23:03;101930.47;;;22.63;51.25
63395;BME280;49531;-34.520;150.798;2023-05-12T07:25:30;101937.00;;;22.62;51.36
63395;BME280;49531;-34.520;150.798;2023-05-12T07:27:57;101946.81;;;22.63;52.23
63395;BME280;49531;-34.520;150.798;2023-05-12T07:30:24;101945.56;;;22.54;51.97
63395;BME280;49531;-34.520;150.798;2023-05-12T07:32:52;101944.03;;;22.47;52.38
63395;BME280;49531;-34.520;150.798;2023-05-12T07:35:19;101953.38;;;22.51;52.14
63395;BME280;49531;-34.520;150.798;2023-05-12T07:37:46;101938.75;;;22.40;51.75
63395;BME280;49531;-34.520;150.798;2023-05-12T07:40:14;101962.38;;;22.51;51.78
63395;BME280;49531;-34.520;150.798;2023-05-12T07:42:41;101964.50;;;22.49;51.77
63395;BME280;49531;-34.520;150.798;2023-05-12T07:45:08;101966.16;;;22.50;51.34
63395;BME280;49531;-34.520;150.798;2023-05-12T07:47:35;101979.19;;;22.48;51.14
63395;BME280;49531;-34.520;150.798;2023-05-12T07:50:03;101982.16;;;22.47;51.13
63395;BME280;49531;-34.520;150.798;2023-05-12T07:52:31;101981.81;;;22.43;50.93
63395;BME280;49531;-34.520;150.798;2023-05-12T07:54:58;101975.22;;;22.39;50.97
63395;BME280;49531;-34.520;150.798;2023-05-12T07:57:25;101989.91;;;22.38;50.88
63395;BME280;49531;-34.520;150.798;2023-05-12T07:59:52;101992.88;;;22.37;50.53
63395;BME280;49531;-34.520;150.798;2023-05-12T08:02:19;101999.88;;;22.33;50.56
63395;BME280;49531;-34.520;150.798;2023-05-12T08:04:47;102007.22;;;22.32;50.39
63395;BME280;49531;-34.520;150.798;2023-05-12T08:07:14;101989.47;;;22.18;50.38
63395;BME280;49531;-34.520;150.798;2023-05-12T08:09:41;101988.19;;;22.20;50.32
63395;BME280;49531;-34.520;150.798;2023-05-12T08:12:08;102005.94;;;22.23;50.40
63395;BME280;49531;-34.520;150.798;2023-05-12T08:14:35;102015.25;;;22.27;50.14
63395;BME280;49531;-34.520;150.798;2023-05-12T08:17:02;102011.25;;;22.18;50.15
63395;BME280;49531;-34.520;150.798;2023-05-12T08:19:30;102001.91;;;22.14;50.23
63395;BME280;49531;-34.520;150.798;2023-05-12T08:21:57;102018.34;;;22.19;50.10
63395;BME280;49531;-34.520;150.798;2023-05-12T08:24:24;102030.41;;;22.23;50.08
63395;BME280;49531;-34.520;150.798;2023-05-12T08:26:52;102028.19;;;22.20;50.28
63395;BME280;49531;-34.520;150.798;2023-05-12T08:29:19;102030.19;;;22.13;50.09
63395;BME280;49531;-34.520;150.798;2023-05-12T08:31:46;102037.53;;;22.12;50.30
63395;BME280;49531;-34.520;150.798;2023-05-12T08:34:13;102031.63;;;22.04;49.96
63395;BME280;49531;-34.520;150.798;2023-05-12T08:36:41;102047.59;;;22.12;49.93
63395;BME280;49531;-34.520;150.798;2023-05-12T08:39:08;102047.00;;;22.10;49.87
63395;BME280;49531;-34.520;150.798;2023-05-12T08:41:42;102043.44;;;22.09;49.81
63395;BME280;49531;-34.520;150.798;2023-05-12T08:44:11;102049.25;;;22.13;49.72
63395;BME280;49531;-34.520;150.798;2023-05-12T08:46:38;102049.13;;;22.19;49.55
63395;BME280;49531;-34.520;150.798;2023-05-12T08:49:09;102045.94;;;22.11;49.60
63395;BME280;49531;-34.520;150.798;2023-05-12T08:51:39;102049.97;;;22.08;49.76
63395;BME280;49531;-34.520;150.798;2023-05-12T08:54:08;102065.34;;;22.03;49.84
63395;BME280;49531;-34.520;150.798;2023-05-12T08:56:39;102069.84;;;21.97;49.93
63395;BME280;49531;-34.520;150.798;2023-05-12T08:59:08;102073.25;;;21.92;50.10
63395;BME280;49531;-34.520;150.798;2023-05-12T09:01:38;102074.31;;;21.91;50.17
63395;BME280;49531;-34.520;150.798;2023-05-12T09:04:08;102080.94;;;21.84;50.05
63395;BME280;49531;-34.520;150.798;2023-05-12T09:06:35;102082.25;;;21.81;50.47
63395;BME280;49531;-34.520;150.798;2023-05-12T09:09:02;102078.94;;;21.79;50.21
63395;BME280;49531;-34.520;150.798;2023-05-12T09:11:29;102068.16;;;21.73;50.22
63395;BME280;49531;-34.520;150.798;2023-05-12T09:14:04;102085.66;;;21.77;50.32
63395;BME280;49531;-34.520;150.798;2023-05-12T09:16:40;102090.16;;;21.71;50.41
63395;BME280;49531;-34.520;150.798;2023-05-12T09:19:09;102099.97;;;21.72;50.58
63395;BME280;49531;-34.520;150.798;2023-05-12T09:21:36;102089.91;;;21.61;50.58
63395;BME280;49531;-34.520;150.798;2023-05-12T09:24:05;102093.81;;;21.65;50.60
63395;BME280;49531;-34.520;150.798;2023-05-12T09:26:45;102094.78;;;21.59;50.75
63395;BME280;49531;-34.520;150.798;2023-05-12T09:29:13;102103.63;;;21.54;50.67
63395;BME280;49531;-34.520;150.798;2023-05-12T09:31:49;102102.19;;;21.52;50.75
63395;BME280;49531;-34.520;150.798;2023-05-12T09:34:18;102112.03;;;21.53;50.72
63395;BME280;49531;-34.520;150.798;2023-05-12T09:36:56;102114.97;;;21.51;50.83
63395;BME280;49531;-34.520;150.798;2023-05-12T09:39:23;102087.03;;;21.33;50.88
63395;BME280;49531;-34.520;150.798;2023-05-12T09:41:51;102113.63;;;21.42;50.79
63395;BME280;49531;-34.520;150.798;2023-05-12T09:44:19;102110.69;;;21.44;50.90
63395;BME280;49531;-34.520;150.798;2023-05-12T09:46:47;102111.63;;;21.38;50.84
63395;BME280;49531;-34.520;150.798;2023-05-12T09:49:19;102127.47;;;21.41;50.93
63395;BME280;49531;-34.520;150.798;2023-05-12T09:51:51;102116.69;;;21.34;51.06
63395;BME280;49531;-34.520;150.798;2023-05-12T09:54:27;102108.16;;;21.30;50.96
63395;BME280;49531;-34.520;150.798;2023-05-12T09:56:57;102121.66;;;21.37;50.98
63395;BME280;49531;-34.520;150.798;2023-05-12T09:59:30;102116.91;;;21.33;51.01
63395;BME280;49531;-34.520;150.798;2023-05-12T10:01:59;102112.41;;;21.26;51.12
63395;BME280;49531;-34.520;150.798;2023-05-12T10:04:31;102121.16;;;21.28;51.09
63395;BME280;49531;-34.520;150.798;2023-05-12T10:07:07;102109.75;;;21.20;50.95
63395;BME280;49531;-34.520;150.798;2023-05-12T10:09:37;102118.31;;;21.23;51.02
63395;BME280;49531;-34.520;150.798;2023-05-12T10:12:04;102120.41;;;21.21;51.03
63395;BME280;49531;-34.520;150.798;2023-05-12T10:14:32;102110.69;;;21.14;51.05
63395;BME280;49531;-34.520;150.798;2023-05-12T10:16:59;102099.78;;;21.02;51.01
63395;BME280;49531;-34.520;150.798;2023-05-12T10:19:29;102121.56;;;21.14;51.06
63395;BME280;49531;-34.520;150.798;2023-05-12T10:21:57;102121.78;;;21.12;51.02
63395;BME280;49531;-34.520;150.798;2023-05-12T10:24:25;102117.03;;;21.08;51.01
63395;BME280;49531;-34.520;150.798;2023-05-12T10:26:53;102113.22;;;20.97;50.99
63395;BME280;49531;-34.520;150.798;2023-05-12T10:29:22;102117.50;;;21.05;51.00
63395;BME280;49531;-34.520;150.798;2023-05-12T10:31:55;102137.25;;;21.12;50.97
63395;BME280;49531;-34.520;150.798;2023-05-12T10:34:22;102120.69;;;21.02;50.77
63395;BME280;49531;-34.520;150.798;2023-05-12T10:36:57;102121.50;;;21.02;50.77
63395;BME280;49531;-34.520;150.798;2023-05-12T10:39:29;102120.91;;;21.00;50.89
63395;BME280;49531;-34.520;150.798;2023-05-12T10:42:04;102125.66;;;21.05;50.58
63395;BME280;49531;-34.520;150.798;2023-05-12T10:44:31;102126.78;;;20.97;50.82
63395;BME280;49531;-34.520;150.798;2023-05-12T10:46:59;102143.84;;;21.04;50.77
63395;BME280;49531;-34.520;150.798;2023-05-12T10:49:35;102135.31;;;21.01;50.93
63395;BME280;49531;-34.520;150.798;2023-05-12T10:52:05;102131.03;;;20.93;50.81
63395;BME280;49531;-34.520;150.798;2023-05-12T10:54:40;102148.53;;;20.97;50.84
63395;BME280;49531;-34.520;150.798;2023-05-12T10:57:15;102147.09;;;20.94;50.96
63395;BME280;49531;-34.520;150.798;2023-05-12T10:59:49;102147.69;;;20.96;50.83
63395;BME280;49531;-34.520;150.798;2023-05-12T11:02:21;102149.59;;;20.96;50.88
63395;BME280;49531;-34.520;150.798;2023-05-12T11:04:56;102151.69;;;20.94;50.86
63395;BME280;49531;-34.520;150.798;2023-05-12T11:07:26;102144.47;;;20.88;50.99
63395;BME280;49531;-34.520;150.798;2023-05-12T11:09:55;102127.66;;;20.79;50.90
63395;BME280;49531;-34.520;150.798;2023-05-12T11:12:23;102152.16;;;20.91;50.75
63395;BME280;49531;-34.520;150.798;2023-05-12T11:14:52;102147.41;;;20.86;50.67
63395;BME280;49531;-34.520;150.798;2023-05-12T11:17:19;102153.06;;;20.85;50.82
63395;BME280;49531;-34.520;150.798;2023-05-12T11:19:48;102146.19;;;20.82;50.86
63395;BME280;49531;-34.520;150.798;2023-05-12T11:22:17;102143.59;;;20.76;50.92
63395;BME280;49531;-34.520;150.798;2023-05-12T11:24:45;102154.00;;;20.79;51.02
63395;BME280;49531;-34.520;150.798;2023-05-12T11:27:17;102146.06;;;20.77;50.94
63395;BME280;49531;-34.520;150.798;2023-05-12T11:29:55;102131.38;;;20.67;50.95
63395;BME280;49531;-34.520;150.798;2023-05-12T11:32:22;102155.63;;;20.80;50.93
63395;BME280;49531;-34.520;150.798;2023-05-12T11:34:49;102155.28;;;20.76;50.89
63395;BME280;49531;-34.520;150.798;2023-05-12T11:37:17;102159.66;;;20.77;50.98
63395;BME280;49531;-34.520;150.798;2023-05-12T11:39:46;102153.84;;;20.74;51.05
63395;BME280;49531;-34.520;150.798;2023-05-12T11:42:13;102160.34;;;20.73;51.06
63395;BME280;49531;-34.520;150.798;2023-05-12T11:44:47;102155.97;;;20.72;51.03
63395;BME280;49531;-34.520;150.798;2023-05-12T11:47:15;102157.47;;;20.68;51.03
63395;BME280;49531;-34.520;150.798;2023-05-12T11:49:49;102154.00;;;20.60;51.05
63395;BME280;49531;-34.520;150.798;2023-05-12T11:52:18;102150.59;;;20.65;51.21
63395;BME280;49531;-34.520;150.798;2023-05-12T11:54:49;102161.22;;;20.67;51.15
63395;BME280;49531;-34.520;150.798;2023-05-12T11:57:26;102170.44;;;20.66;51.11
63395;BME280;49531;-34.520;150.798;2023-05-12T12:00:03;102171.50;;;20.64;51.21
63395;BME280;49531;-34.520;150.798;2023-05-12T12:02:32;102149.22;;;20.56;51.18
63395;BME280;49531;-34.520;150.798;2023-05-12T12:04:59;102158.22;;;20.56;51.07
63395;BME280;49531;-34.520;150.798;2023-05-12T12:07:32;102160.03;;;20.62;51.25
63395;BME280;49531;-34.520;150.798;2023-05-12T12:10:11;102153.00;;;20.55;51.15
63395;BME280;49531;-34.520;150.798;2023-05-12T12:12:40;102141.75;;;20.51;51.01
63395;BME280;49531;-34.520;150.798;2023-05-12T12:15:08;102154.66;;;20.56;51.27
63395;BME280;49531;-34.520;150.798;2023-05-12T12:17:36;102151.56;;;20.52;50.98
63395;BME280;49531;-34.520;150.798;2023-05-12T12:20:03;102153.84;;;20.55;51.15
63395;BME280;49531;-34.520;150.798;2023-05-12T12:22:30;102142.22;;;20.48;51.11
63395;BME280;49531;-34.520;150.798;2023-05-12T12:25:01;102138.91;;;20.46;50.97